createdAt,value
2022-09-05T00:00:17.173Z,14.25
2022-09-05T00:01:17.150Z,14.13
2022-09-05T00:02:17.165Z,14.17
2022-09-05T00:03:17.267Z,14.21
2022-09-05T00:04:24.731Z,14.19
2022-09-05T00:05:17.069Z,14.25
2022-09-05T00:06:17.082Z,14.39
2022-09-05T00:07:57.778Z,14.31
2022-09-05T00:08:17.004Z,14.25
2022-09-05T00:09:16.984Z,14.34
2022-09-05T00:10:16.964Z,14.25
2022-09-05T00:11:39.489Z,14.25
2022-09-05T00:12:16.920Z,14.24
2022-09-05T00:13:16.896Z,14.17
2022-09-05T00:14:16.881Z,14.27
2022-09-05T00:15:18.888Z,14.24
2022-09-05T00:16:16.927Z,14.31
2022-09-05T00:17:16.812Z,14.28
2022-09-05T00:21:36.786Z,14.31
2022-09-05T00:24:17.297Z,14.24
2022-09-05T00:24:22.001Z,14.32
2022-09-05T00:24:25.768Z,14.39
2022-09-05T00:24:30.903Z,14.34
2022-09-05T00:24:31.149Z,14.44
2022-09-05T00:24:32.754Z,14.25
2022-09-05T00:25:33.061Z,14.38
2022-09-05T00:26:16.659Z,14.43
2022-09-05T00:27:16.619Z,14.47
2022-09-05T00:28:25.658Z,14.46
2022-09-05T00:29:16.574Z,14.53
2022-09-05T00:31:08.561Z,14.57
2022-09-05T00:31:55.520Z,14.65
2022-09-05T00:32:16.522Z,14.61
2022-09-05T00:33:26.678Z,14.57
2022-09-05T00:34:16.461Z,14.44
2022-09-05T00:35:16.458Z,14.50
2022-09-05T00:36:16.414Z,14.38
2022-09-05T00:37:16.485Z,14.49
2022-09-05T00:38:16.395Z,14.38
2022-09-05T00:39:16.368Z,14.42
2022-09-05T00:40:18.687Z,14.35
2022-09-05T00:41:16.329Z,14.27
2022-09-05T00:42:16.301Z,14.32
2022-09-05T00:43:16.272Z,14.19
2022-09-05T00:44:16.249Z,14.28
2022-09-05T00:45:19.897Z,14.47
2022-09-05T00:46:16.276Z,14.49
2022-09-05T00:47:16.185Z,14.57
2022-09-05T00:48:16.175Z,14.52
2022-09-05T00:49:16.145Z,14.60
2022-09-05T00:50:16.163Z,14.52
2022-09-05T00:51:16.105Z,14.47
2022-09-05T00:52:16.110Z,14.38
2022-09-05T00:53:16.062Z,14.37
2022-09-05T00:54:16.039Z,14.43
2022-09-05T00:55:16.024Z,14.32
2022-09-05T00:56:15.998Z,14.29
2022-09-05T00:57:16.312Z,14.34
2022-09-05T00:58:15.962Z,14.29
2022-09-05T00:59:15.941Z,14.32
2022-09-05T01:00:17.808Z,14.28
2022-09-05T01:01:21.457Z,14.29
2022-09-05T01:02:15.977Z,14.10
2022-09-05T01:03:15.954Z,14.24
2022-09-05T01:04:15.839Z,14.25
2022-09-05T01:05:15.812Z,14.25
2022-09-05T01:06:15.790Z,14.20
2022-09-05T01:07:15.769Z,14.19
2022-09-05T01:08:15.749Z,14.20
2022-09-05T01:09:15.728Z,14.28
2022-09-05T01:10:15.709Z,14.27
2022-09-05T01:11:15.692Z,14.25
2022-09-05T01:12:15.673Z,14.10
2022-09-05T01:13:15.645Z,14.19
2022-09-05T01:14:15.620Z,14.12
2022-09-05T01:15:15.603Z,14.10
2022-09-05T01:16:15.628Z,14.01
2022-09-05T01:17:15.559Z,14.10
2022-09-05T01:18:15.556Z,14.07
2022-09-05T01:19:16.041Z,14.09
2022-09-05T01:20:19.188Z,14.10
2022-09-05T01:21:15.473Z,14.14
2022-09-05T01:22:15.457Z,14.10
2022-09-05T01:23:15.450Z,14.10
2022-09-05T01:24:15.413Z,14.14
2022-09-05T01:25:15.414Z,14.06
2022-09-05T01:26:15.373Z,14.07
2022-09-05T01:27:15.350Z,14.09
2022-09-05T01:29:15.939Z,14.06
2022-09-05T01:29:19.354Z,14.01
2022-09-05T01:30:15.325Z,14.10
2022-09-05T01:31:15.309Z,14.02
2022-09-05T01:32:15.256Z,13.94
2022-09-05T01:33:15.222Z,14.10
2022-09-05T01:34:15.201Z,14.07
2022-09-05T01:35:15.189Z,14.19
2022-09-05T01:36:15.180Z,14.25
2022-09-05T01:37:24.821Z,14.28
2022-09-05T01:38:15.116Z,14.10
2022-09-05T01:40:14.351Z,14.16
2022-09-05T01:40:16.871Z,14.16
2022-09-05T01:41:18.434Z,14.10
2022-09-05T01:42:15.038Z,13.96
2022-09-05T01:43:15.064Z,14.01
2022-09-05T01:44:14.991Z,13.96
2022-09-05T01:45:14.968Z,13.91
2022-09-05T01:46:15.005Z,13.94
2022-09-05T01:47:14.972Z,14.06
2022-09-05T01:48:14.905Z,14.10
2022-09-05T01:49:14.885Z,14.12
2022-09-05T01:50:14.864Z,14.06
2022-09-05T01:51:28.689Z,14.02
2022-09-05T01:52:14.819Z,13.94
2022-09-05T01:53:14.803Z,13.95
2022-09-05T01:54:24.949Z,13.98
2022-09-05T01:55:14.760Z,13.94
2022-09-05T01:56:14.740Z,13.91
2022-09-05T01:57:14.719Z,13.80
2022-09-05T01:58:14.696Z,13.92
2022-09-05T01:59:14.685Z,13.92
2022-09-05T02:00:14.650Z,13.95
2022-09-05T02:01:25.356Z,13.95
2022-09-05T02:02:14.712Z,13.94
2022-09-05T02:03:14.612Z,13.95
2022-09-05T02:04:14.564Z,13.89
2022-09-05T02:05:14.564Z,13.76
2022-09-05T02:06:14.538Z,13.89
2022-09-05T02:07:20.043Z,13.98
2022-09-05T02:08:14.535Z,13.96
2022-09-05T02:09:14.471Z,14.07
2022-09-05T02:10:14.442Z,14.19
2022-09-05T02:11:14.421Z,14.10
2022-09-05T02:12:14.397Z,14.06
2022-09-05T02:13:14.377Z,14.10
2022-09-05T02:14:14.354Z,14.02
2022-09-05T02:15:14.328Z,13.88
2022-09-05T02:16:14.341Z,13.94
2022-09-05T02:17:23.621Z,13.92
2022-09-05T02:18:14.297Z,14.06
2022-09-05T02:19:14.244Z,14.07
2022-09-05T02:20:14.243Z,14.12
2022-09-05T02:21:14.211Z,14.13
2022-09-05T02:22:14.180Z,14.12
2022-09-05T02:23:40.545Z,13.96
2022-09-05T02:24:14.391Z,13.96
2022-09-05T02:25:30.561Z,13.92
2022-09-05T02:26:14.105Z,13.95
2022-09-05T02:28:03.320Z,13.76
2022-09-05T02:28:14.049Z,13.89
2022-09-05T02:29:28.928Z,13.84
2022-09-05T02:30:14.013Z,13.77
2022-09-05T02:31:19.808Z,13.70
2022-09-05T02:32:13.967Z,13.62
2022-09-05T02:33:13.950Z,13.69
2022-09-05T02:34:13.934Z,13.77
2022-09-05T02:35:14.012Z,13.98
2022-09-05T02:36:13.886Z,13.96
2022-09-05T02:37:13.862Z,14.01
2022-09-05T02:40:59.868Z,14.09
2022-09-05T02:45:01.968Z,14.14
2022-09-05T02:45:03.295Z,14.10
2022-09-05T02:45:08.518Z,14.06
2022-09-05T02:45:10.275Z,13.99
2022-09-05T02:45:10.983Z,14.13
2022-09-05T02:45:13.246Z,14.13
2022-09-05T02:45:25.453Z,13.92
2022-09-05T02:46:13.764Z,13.89
2022-09-05T02:47:13.648Z,13.80
2022-09-05T02:48:15.360Z,13.80
2022-09-05T02:49:26.176Z,13.79
2022-09-05T02:54:00.485Z,13.80
2022-09-05T02:56:38.918Z,13.83
2022-09-05T02:57:29.106Z,13.76
2022-09-05T02:57:35.418Z,13.77
2022-09-05T02:57:36.699Z,13.67
2022-09-05T02:57:36.857Z,13.81
2022-09-05T02:57:38.985Z,13.87
2022-09-05T02:57:43.274Z,13.69
2022-09-05T02:58:13.557Z,13.59
2022-09-05T02:59:13.417Z,13.54
2022-09-05T03:00:13.385Z,13.54
2022-09-05T03:01:13.394Z,13.63
2022-09-05T03:02:25.621Z,13.63
2022-09-05T03:03:13.349Z,13.67
2022-09-05T03:04:13.286Z,13.49
2022-09-05T03:05:13.266Z,13.52
2022-09-05T03:06:13.249Z,13.49
2022-09-05T03:07:13.226Z,13.44
2022-09-05T03:08:13.194Z,13.38
2022-09-05T03:09:17.446Z,13.36
2022-09-05T03:10:13.151Z,13.36
2022-09-05T03:11:13.158Z,13.37
2022-09-05T03:12:29.164Z,13.25
2022-09-05T03:13:13.090Z,13.27
2022-09-05T03:14:13.072Z,13.22
2022-09-05T03:15:18.619Z,13.18
2022-09-05T03:16:13.101Z,13.22
2022-09-05T03:17:12.999Z,13.18
2022-09-05T03:18:31.450Z,13.20
2022-09-05T03:19:12.958Z,13.09
2022-09-05T03:20:12.945Z,13.11
2022-09-05T03:21:12.918Z,13.11
2022-09-05T03:22:12.895Z,13.07
2022-09-05T03:23:12.873Z,13.06
2022-09-05T03:24:12.848Z,13.04
2022-09-05T03:25:12.851Z,13.22
2022-09-05T03:26:12.806Z,13.17
2022-09-05T03:27:12.786Z,13.21
2022-09-05T03:28:12.763Z,13.20
2022-09-05T03:29:12.746Z,13.17
2022-09-05T03:30:12.727Z,13.21
2022-09-05T03:31:22.282Z,13.15
2022-09-05T03:32:12.678Z,13.20
2022-09-05T03:33:12.651Z,13.18
2022-09-05T03:34:12.640Z,13.15
2022-09-05T03:35:12.626Z,13.17
2022-09-05T03:36:12.594Z,13.17
2022-09-05T03:37:12.570Z,13.18
2022-09-05T03:38:12.553Z,13.12
2022-09-05T03:39:12.523Z,13.14
2022-09-05T03:40:16.142Z,13.12
2022-09-05T03:41:12.492Z,13.17
2022-09-05T03:42:14.663Z,13.12
2022-09-05T03:43:12.443Z,13.18
2022-09-05T03:44:12.415Z,13.18
2022-09-05T03:45:12.414Z,13.22
2022-09-05T03:46:12.411Z,13.24
2022-09-05T03:47:12.353Z,13.21
2022-09-05T03:48:28.069Z,13.22
2022-09-05T03:50:09.502Z,13.20
2022-09-05T03:54:17.125Z,13.25
2022-09-05T03:57:05.935Z,13.27
2022-09-05T03:57:07.264Z,13.29
2022-09-05T03:57:10.415Z,13.36
2022-09-05T03:57:12.691Z,13.36
2022-09-05T03:57:18.468Z,13.38
2022-09-05T03:57:20.724Z,13.37
2022-09-05T03:57:33.834Z,13.32
2022-09-05T03:58:18.164Z,13.38
2022-09-05T03:59:12.089Z,13.41
2022-09-05T04:00:12.071Z,13.49
2022-09-05T04:02:40.390Z,13.51
2022-09-05T04:04:03.725Z,13.51
2022-09-05T04:06:44.184Z,13.46
2022-09-05T04:08:10.294Z,13.54
2022-09-05T04:08:14.409Z,13.52
2022-09-05T04:08:18.262Z,13.54
2022-09-05T04:08:18.372Z,13.47
2022-09-05T04:08:41.013Z,13.52
2022-09-05T04:09:12.039Z,13.47
2022-09-05T04:10:11.937Z,13.55
2022-09-05T04:11:11.830Z,13.49
2022-09-05T04:12:11.806Z,13.65
2022-09-05T04:13:11.790Z,13.79
2022-09-05T04:14:11.775Z,13.84
2022-09-05T04:15:11.742Z,13.77
2022-09-05T04:16:11.782Z,13.79
2022-09-05T04:17:11.700Z,13.79
2022-09-05T04:18:11.723Z,13.76
2022-09-05T04:19:11.654Z,13.69
2022-09-05T04:20:11.638Z,13.69
2022-09-05T04:21:11.624Z,13.69
2022-09-05T04:22:11.594Z,13.65
2022-09-05T04:23:11.574Z,13.52
2022-09-05T04:24:11.548Z,13.54
2022-09-05T04:25:11.542Z,13.54
2022-09-05T04:26:12.484Z,13.49
2022-09-05T04:27:11.487Z,13.52
2022-09-05T04:28:11.456Z,13.65
2022-09-05T04:29:11.445Z,13.70
2022-09-05T04:30:38.554Z,13.69
2022-09-05T04:31:11.395Z,13.70
2022-09-05T04:32:18.010Z,13.65
2022-09-05T04:33:11.353Z,13.59
2022-09-05T04:34:11.331Z,13.69
2022-09-05T04:35:11.313Z,13.70
2022-09-05T04:36:18.271Z,13.70
2022-09-05T04:37:11.298Z,13.65
2022-09-05T04:38:11.256Z,13.81
2022-09-05T04:39:11.227Z,13.80
2022-09-05T04:40:11.218Z,13.84
2022-09-05T04:41:11.183Z,13.92
2022-09-05T04:42:11.166Z,13.76
2022-09-05T04:43:11.139Z,13.79
2022-09-05T04:44:11.115Z,13.89
2022-09-05T04:45:11.112Z,13.79
2022-09-05T04:46:12.351Z,13.84
2022-09-05T04:47:11.678Z,13.99
2022-09-05T04:48:11.056Z,14.10
2022-09-05T04:49:11.011Z,14.16
2022-09-05T04:50:10.995Z,14.21
2022-09-05T04:51:12.937Z,14.29
2022-09-05T04:52:11.743Z,14.27
2022-09-05T04:53:10.927Z,14.25
2022-09-05T04:54:10.938Z,14.28
2022-09-05T04:55:10.910Z,14.28
2022-09-05T04:56:10.870Z,14.32
2022-09-05T04:57:14.308Z,14.19
2022-09-05T04:58:10.827Z,14.25
2022-09-05T05:01:40.737Z,14.44
2022-09-05T05:04:45.986Z,14.47
2022-09-05T05:06:01.348Z,14.72
2022-09-05T05:06:08.546Z,14.65
2022-09-05T05:06:13.895Z,14.61
2022-09-05T05:06:17.111Z,14.68
2022-09-05T05:06:18.515Z,14.65
2022-09-05T05:06:38.111Z,14.53
2022-09-05T05:07:10.705Z,14.53
2022-09-05T05:08:10.701Z,14.52
2022-09-05T05:09:10.660Z,14.54
2022-09-05T05:14:07.639Z,14.52
2022-09-05T05:16:13.515Z,14.52
2022-09-05T05:17:59.390Z,14.44
2022-09-05T05:18:00.195Z,14.43
2022-09-05T05:18:08.140Z,14.37
2022-09-05T05:18:08.469Z,14.27
2022-09-05T05:18:11.987Z,14.46
2022-09-05T05:18:13.402Z,14.39
2022-09-05T05:18:36.709Z,14.28
2022-09-05T05:19:18.647Z,14.31
2022-09-05T05:20:42.319Z,14.38
2022-09-05T05:21:10.457Z,14.27
2022-09-05T05:22:10.348Z,14.20
2022-09-05T05:23:10.296Z,14.28
2022-09-05T05:24:10.270Z,14.21
2022-09-05T05:25:10.304Z,14.20
2022-09-05T05:26:10.240Z,14.19
2022-09-05T05:27:10.215Z,14.27
2022-09-05T05:28:24.066Z,14.24
2022-09-05T05:29:10.165Z,14.27
2022-09-05T05:30:10.149Z,14.24
2022-09-05T05:31:10.196Z,14.19
2022-09-05T05:32:10.122Z,14.19
2022-09-05T05:33:10.100Z,14.14
2022-09-05T05:34:16.249Z,14.27
2022-09-05T05:35:10.035Z,14.19
2022-09-05T05:36:10.075Z,14.24
2022-09-05T05:37:10.093Z,14.27
2022-09-05T05:38:09.982Z,14.31
2022-09-05T05:39:09.958Z,14.34
2022-09-05T05:40:10.041Z,14.31
2022-09-05T05:41:09.963Z,14.32
2022-09-05T05:42:20.366Z,14.34
2022-09-05T05:43:09.898Z,14.28
2022-09-05T05:44:09.856Z,14.39
2022-09-05T05:45:09.833Z,14.34
2022-09-05T05:46:09.847Z,14.31
2022-09-05T05:47:09.785Z,14.39
2022-09-05T05:48:09.766Z,14.31
2022-09-05T05:49:09.757Z,14.37
2022-09-05T05:50:11.791Z,14.42
2022-09-05T05:51:09.705Z,14.43
2022-09-05T05:52:09.730Z,14.42
2022-09-05T05:53:09.659Z,14.44
2022-09-05T05:54:09.794Z,14.47
2022-09-05T05:55:34.005Z,14.49
2022-09-05T05:56:09.647Z,14.50
2022-09-05T05:57:10.096Z,14.60
2022-09-05T05:58:09.603Z,14.69
2022-09-05T05:59:09.683Z,14.71
2022-09-05T06:00:13.425Z,14.83
2022-09-05T06:01:27.381Z,14.83
2022-09-05T06:02:09.602Z,14.84
2022-09-05T06:03:26.002Z,14.88
2022-09-05T06:04:09.456Z,14.93
2022-09-05T06:05:09.473Z,15.01
2022-09-05T06:06:09.501Z,15.01
2022-09-05T06:07:10.106Z,15.08
2022-09-05T06:12:01.172Z,15.08
2022-09-05T06:12:46.329Z,15.17
2022-09-05T06:14:48.174Z,15.13
2022-09-05T06:14:58.871Z,15.30
2022-09-05T06:15:00.722Z,15.30
2022-09-05T06:15:01.180Z,15.28
2022-09-05T06:15:01.181Z,15.24
2022-09-05T06:15:12.103Z,15.35
2022-09-05T06:16:09.278Z,15.42
2022-09-05T06:17:09.172Z,15.38
2022-09-05T06:18:09.156Z,15.41
2022-09-05T06:19:09.132Z,15.49
2022-09-05T06:22:04.357Z,15.59
2022-09-05T06:22:08.299Z,15.57
2022-09-05T06:22:14.080Z,15.57
2022-09-05T06:23:27.530Z,15.61
2022-09-05T06:24:09.028Z,15.64
2022-09-05T06:25:16.962Z,15.68
2022-09-05T06:26:08.996Z,15.81
2022-09-05T06:27:08.966Z,15.79
2022-09-05T06:28:19.733Z,15.89
2022-09-05T06:29:08.931Z,15.86
2022-09-05T06:30:08.954Z,16.03
2022-09-05T06:31:29.332Z,16.11
2022-09-05T06:32:08.906Z,16.30
2022-09-05T06:33:08.857Z,16.34
2022-09-05T06:34:17.078Z,16.38
2022-09-05T06:35:08.812Z,16.44
2022-09-05T06:36:08.808Z,16.67
2022-09-05T06:37:08.816Z,16.68
2022-09-05T06:38:08.758Z,16.75
2022-09-05T06:39:08.743Z,16.83
2022-09-05T06:40:08.864Z,16.92
2022-09-05T06:41:08.697Z,16.96
2022-09-05T06:42:08.678Z,16.92
2022-09-05T06:43:08.674Z,17.04
2022-09-05T06:44:08.651Z,17.11
2022-09-05T06:45:27.396Z,17.13
2022-09-05T06:46:08.645Z,17.41
2022-09-05T06:47:30.229Z,17.67
2022-09-05T06:48:08.566Z,18.03
2022-09-05T06:49:30.091Z,18.33
2022-09-05T06:50:27.615Z,18.76
2022-09-05T06:51:09.073Z,18.83
2022-09-05T06:52:08.497Z,19.11
2022-09-05T06:53:19.833Z,19.20
2022-09-05T06:54:08.452Z,19.20
2022-09-05T06:55:08.441Z,19.11
2022-09-05T06:56:08.421Z,18.99
2022-09-05T06:57:08.392Z,19.08
2022-09-05T06:58:08.387Z,18.94
2022-09-05T06:59:09.933Z,18.99
2022-09-05T07:00:15.576Z,19.02
2022-09-05T07:01:08.812Z,19.20
2022-09-05T07:02:08.519Z,19.28
2022-09-05T07:03:08.309Z,19.42
2022-09-05T07:04:33.405Z,19.42
2022-09-05T07:05:37.406Z,19.53
2022-09-05T07:06:08.261Z,19.72
2022-09-05T07:07:08.215Z,19.90
2022-09-05T07:08:26.724Z,20.02
2022-09-05T07:09:08.525Z,20.00
2022-09-05T07:10:34.681Z,20.13
2022-09-05T07:11:16.013Z,20.28
2022-09-05T07:12:08.129Z,20.33
2022-09-05T07:13:08.108Z,20.33
2022-09-05T07:14:08.118Z,20.34
2022-09-05T07:15:08.702Z,20.43
2022-09-05T07:16:08.095Z,20.34
2022-09-05T07:17:08.065Z,20.42
2022-09-05T07:18:10.960Z,20.35
2022-09-05T07:19:08.010Z,20.53
2022-09-05T07:20:08.006Z,20.46
2022-09-05T07:21:17.849Z,20.51
2022-09-05T07:22:29.386Z,20.53
2022-09-05T07:24:06.563Z,20.69
2022-09-05T07:24:10.094Z,20.71
2022-09-05T07:25:08.752Z,20.79
2022-09-05T07:26:07.910Z,20.83
2022-09-05T07:27:09.022Z,21.11
2022-09-05T07:28:29.403Z,21.30
2022-09-05T07:29:09.745Z,21.39
2022-09-05T07:30:07.881Z,21.61
2022-09-05T07:31:07.949Z,21.75
2022-09-05T07:32:07.878Z,21.94
2022-09-05T07:33:07.794Z,22.07
2022-09-05T07:34:20.644Z,22.34
2022-09-05T07:35:07.800Z,22.59
2022-09-05T07:36:07.755Z,22.64
2022-09-05T07:37:14.915Z,22.80
2022-09-05T07:38:07.733Z,22.99
2022-09-05T07:39:27.624Z,23.09
2022-09-05T07:40:23.298Z,23.23
2022-09-05T07:41:07.725Z,23.15
2022-09-05T07:42:07.660Z,23.40
2022-09-05T07:43:09.544Z,23.65
2022-09-05T07:44:07.623Z,23.65
2022-09-05T07:45:07.611Z,23.92
2022-09-05T07:46:07.641Z,24.17
2022-09-05T07:47:07.588Z,24.41
2022-09-05T07:48:07.589Z,24.63
2022-09-05T07:49:07.557Z,24.82
2022-09-05T07:52:43.104Z,25.13
2022-09-05T07:56:49.196Z,25.35
2022-09-05T07:56:50.090Z,25.38
2022-09-05T07:57:01.604Z,25.49
2022-09-05T07:57:02.366Z,25.74
2022-09-05T07:57:04.918Z,25.59
2022-09-05T07:57:10.464Z,25.71
2022-09-05T07:58:07.432Z,25.75
2022-09-05T07:59:07.428Z,25.74
2022-09-05T08:00:07.419Z,25.68
2022-09-05T08:01:07.734Z,25.86
2022-09-05T08:02:07.383Z,25.84
2022-09-05T08:03:07.373Z,25.97
2022-09-05T08:04:07.361Z,25.97
2022-09-05T08:05:07.399Z,26.22
2022-09-05T08:06:07.341Z,26.42
2022-09-05T08:07:47.374Z,26.50
2022-09-05T08:08:07.310Z,26.65
2022-09-05T08:10:07.032Z,26.76
2022-09-05T08:10:09.714Z,26.91
2022-09-05T08:11:24.138Z,27.20
2022-09-05T08:12:09.607Z,27.39
2022-09-05T08:13:23.449Z,27.50
2022-09-05T08:14:44.033Z,27.70
2022-09-05T08:15:10.239Z,27.96
2022-09-05T08:16:10.509Z,28.11
2022-09-05T08:17:07.218Z,27.95
2022-09-05T08:18:07.199Z,28.28
2022-09-05T08:19:07.182Z,28.54
2022-09-05T08:20:08.888Z,28.85
2022-09-05T08:21:07.219Z,28.93
2022-09-05T08:22:07.150Z,29.26
2022-09-05T08:23:07.146Z,29.47
2022-09-05T08:24:12.975Z,29.50
2022-09-05T08:25:07.140Z,29.55
2022-09-05T08:26:07.114Z,29.47
2022-09-05T08:27:16.318Z,29.49
2022-09-05T08:28:07.087Z,29.34
2022-09-05T08:29:07.321Z,29.23
2022-09-05T08:30:26.154Z,29.25
2022-09-05T08:31:07.079Z,29.01
2022-09-05T08:32:07.090Z,29.22
2022-09-05T08:33:11.048Z,29.60
2022-09-05T08:34:07.033Z,30.33
2022-09-05T08:35:07.023Z,30.81
2022-09-05T08:36:07.017Z,30.47
2022-09-05T08:37:07.001Z,30.19
2022-09-05T08:38:06.992Z,30.54
2022-09-05T08:39:06.992Z,31.20
2022-09-05T08:40:10.523Z,31.53
2022-09-05T08:41:06.966Z,32.00
2022-09-05T08:42:06.957Z,31.99
2022-09-05T08:46:17.008Z,32.05
2022-09-05T08:46:37.465Z,31.99
2022-09-05T08:46:40.232Z,32.02
2022-09-05T08:46:47.411Z,32.14
2022-09-05T08:47:06.950Z,32.32
2022-09-05T08:48:06.955Z,32.39
2022-09-05T08:49:11.450Z,32.43
2022-09-05T08:50:06.888Z,32.52
2022-09-05T08:51:06.912Z,31.84
2022-09-05T08:52:06.859Z,31.82
2022-09-05T08:53:28.418Z,31.99
2022-09-05T08:54:06.842Z,32.35
2022-09-05T08:55:07.706Z,32.64
2022-09-05T08:56:06.839Z,32.43
2022-09-05T08:57:06.831Z,32.55
2022-09-05T08:58:06.823Z,32.77
2022-09-05T08:59:31.654Z,33.01
2022-09-05T09:00:19.129Z,33.29
2022-09-05T09:01:06.839Z,33.37
2022-09-05T09:02:46.125Z,33.11
2022-09-05T09:03:06.866Z,33.03
2022-09-05T09:04:11.431Z,32.71
2022-09-05T09:05:06.745Z,32.48
2022-09-05T09:06:14.241Z,32.37
2022-09-05T09:07:47.183Z,32.71
2022-09-05T09:08:06.727Z,32.49
2022-09-05T09:09:06.714Z,32.48
2022-09-05T09:10:06.702Z,32.30
2022-09-05T09:11:06.701Z,32.62
2022-09-05T09:12:06.686Z,32.67
2022-09-05T09:13:06.686Z,32.89
2022-09-05T09:14:06.674Z,32.73
2022-09-05T09:15:06.738Z,32.58
2022-09-05T09:16:06.840Z,32.61
2022-09-05T09:17:06.718Z,32.91
2022-09-05T09:18:06.655Z,32.64
2022-09-05T09:19:06.634Z,32.36
2022-09-05T09:20:06.638Z,32.49
2022-09-05T09:21:06.625Z,31.72
2022-09-05T09:22:06.599Z,31.73
2022-09-05T09:23:06.715Z,31.61
2022-09-05T09:24:06.584Z,32.00
2022-09-05T09:25:14.263Z,32.05
2022-09-05T09:26:06.561Z,32.35
2022-09-05T09:27:06.569Z,31.82
2022-09-05T09:28:45.126Z,31.73
2022-09-05T09:29:06.548Z,32.03
2022-09-05T09:30:06.530Z,32.02
2022-09-05T09:31:06.552Z,32.48
2022-09-05T09:32:06.509Z,32.43
2022-09-05T09:33:06.532Z,32.59
2022-09-05T09:34:06.553Z,32.40
2022-09-05T09:35:06.483Z,32.55
2022-09-05T09:36:08.217Z,32.62
2022-09-05T09:37:06.479Z,32.49
2022-09-05T09:38:06.476Z,32.55
2022-09-05T09:39:21.521Z,32.57
2022-09-05T09:40:06.472Z,32.47
2022-09-05T09:41:06.428Z,32.15
2022-09-05T09:42:06.431Z,32.18
2022-09-05T09:43:07.207Z,31.57
2022-09-05T09:44:06.432Z,31.79
2022-09-05T09:45:27.722Z,32.30
2022-09-05T09:46:06.425Z,32.32
2022-09-05T09:47:06.385Z,32.62
2022-09-05T09:48:06.371Z,32.99
2022-09-05T09:49:22.677Z,32.85
2022-09-05T09:50:06.358Z,32.91
2022-09-05T09:51:06.344Z,32.66
2022-09-05T09:52:06.333Z,32.71
2022-09-05T09:53:06.331Z,32.74
2022-09-05T09:54:06.318Z,32.80
2022-09-05T09:55:06.311Z,32.42
2022-09-05T09:56:06.929Z,31.65
2022-09-05T09:57:06.298Z,31.39
2022-09-05T09:58:06.295Z,31.13
2022-09-05T09:59:06.275Z,30.61
2022-09-05T10:00:06.274Z,30.19
2022-09-05T10:01:21.516Z,30.03
2022-09-05T10:02:15.630Z,29.79
2022-09-05T10:05:25.421Z,29.40
2022-09-05T10:10:33.406Z,29.04
2022-09-05T10:10:35.975Z,29.00
2022-09-05T10:10:45.151Z,28.84
2022-09-05T10:10:46.908Z,28.69
2022-09-05T10:10:49.907Z,28.62
2022-09-05T10:10:54.452Z,28.78
2022-09-05T10:11:09.533Z,28.84
2022-09-05T10:12:06.892Z,28.66
2022-09-05T10:13:08.006Z,28.59
2022-09-05T10:14:06.152Z,28.26
2022-09-05T10:15:30.466Z,28.23
2022-09-05T10:16:07.507Z,28.06
2022-09-05T10:17:06.130Z,27.99
2022-09-05T10:18:06.117Z,28.07
2022-09-05T10:19:06.117Z,28.06
2022-09-05T10:20:10.141Z,28.16
2022-09-05T10:21:15.313Z,28.16
2022-09-05T10:23:06.067Z,28.33
2022-09-05T10:24:06.074Z,28.25
2022-09-05T10:25:18.580Z,28.23
2022-09-05T10:26:06.054Z,28.17
2022-09-05T10:27:06.026Z,28.10
2022-09-05T10:28:06.043Z,28.14
2022-09-05T10:29:36.866Z,28.17
2022-09-05T10:30:06.015Z,28.22
2022-09-05T10:33:17.002Z,28.25
2022-09-05T10:33:33.766Z,28.32
2022-09-05T10:35:08.326Z,28.40
2022-09-05T10:35:19.948Z,28.38
2022-09-05T10:35:21.133Z,28.36
2022-09-05T10:36:05.966Z,28.26
2022-09-05T10:37:05.932Z,28.14
2022-09-05T10:38:07.752Z,28.22
2022-09-05T10:39:05.914Z,28.22
2022-09-05T10:40:05.947Z,28.23
2022-09-05T10:41:21.360Z,28.21
2022-09-05T10:42:05.916Z,28.14
2022-09-05T10:43:05.878Z,28.25
2022-09-05T10:44:05.864Z,28.54
2022-09-05T10:45:05.883Z,28.91
2022-09-05T10:46:05.924Z,29.35
2022-09-05T10:47:05.872Z,29.55
2022-09-05T10:48:13.728Z,29.50
2022-09-05T10:49:05.832Z,29.29
2022-09-05T10:50:05.820Z,29.03
2022-09-05T10:51:05.826Z,28.93
2022-09-05T10:52:18.413Z,28.87
2022-09-05T10:53:05.795Z,28.72
2022-09-05T10:54:05.796Z,28.65
2022-09-05T10:55:14.091Z,28.62
2022-09-05T10:56:05.756Z,28.69
2022-09-05T10:57:05.754Z,29.06
2022-09-05T10:58:05.764Z,29.92
2022-09-05T11:02:16.194Z,30.36
2022-09-05T11:02:22.589Z,30.47
2022-09-05T11:02:24.099Z,30.26
2022-09-05T11:02:29.326Z,29.84
2022-09-05T11:03:05.771Z,29.68
2022-09-05T11:04:05.797Z,29.28
2022-09-05T11:05:05.756Z,29.25
2022-09-05T11:06:09.507Z,29.03
2022-09-05T11:07:05.669Z,28.95
2022-09-05T11:08:05.653Z,28.95
2022-09-05T11:09:05.654Z,28.87
2022-09-05T11:10:05.640Z,29.01
2022-09-05T11:11:05.626Z,29.10
2022-09-05T11:12:05.617Z,29.38
2022-09-05T11:13:05.615Z,30.00
2022-09-05T11:14:05.714Z,30.45
2022-09-05T11:15:05.631Z,31.15
2022-09-05T11:16:06.830Z,31.53
2022-09-05T11:17:05.619Z,31.93
2022-09-05T11:18:05.582Z,31.98
2022-09-05T11:19:05.595Z,31.53
2022-09-05T11:20:05.569Z,31.54
2022-09-05T11:21:05.550Z,31.43
2022-09-05T11:22:23.833Z,31.73
2022-09-05T11:23:05.538Z,31.70
2022-09-05T11:24:05.532Z,31.88
2022-09-05T11:25:05.540Z,32.11
2022-09-05T11:26:05.583Z,32.00
2022-09-05T11:27:23.672Z,31.70
2022-09-05T11:28:05.560Z,31.46
2022-09-05T11:29:05.536Z,31.60
2022-09-05T11:30:05.513Z,31.85
2022-09-05T11:31:05.525Z,32.35
2022-09-05T11:34:02.836Z,32.64
2022-09-05T11:36:56.500Z,32.51
2022-09-05T11:39:26.298Z,32.42
2022-09-05T11:39:57.724Z,31.96
2022-09-05T11:39:58.480Z,32.14
2022-09-05T11:40:02.600Z,31.46
2022-09-05T11:40:05.509Z,31.58
2022-09-05T11:40:08.558Z,31.73
2022-09-05T11:40:30.123Z,31.70
2022-09-05T11:41:11.852Z,31.98
2022-09-05T11:42:05.513Z,32.42
2022-09-05T11:43:05.418Z,32.70
2022-09-05T11:44:25.758Z,32.79
2022-09-05T11:45:05.411Z,32.85
2022-09-05T11:46:05.484Z,32.79
2022-09-05T11:47:14.277Z,32.98
2022-09-05T11:48:05.421Z,33.29
2022-09-05T11:49:05.392Z,33.42
2022-09-05T11:50:08.860Z,33.48
2022-09-05T11:51:05.402Z,33.55
2022-09-05T11:52:05.396Z,33.63
2022-09-05T11:53:05.421Z,33.58
2022-09-05T11:54:05.416Z,33.78
2022-09-05T11:55:05.382Z,33.61
2022-09-05T11:56:05.388Z,33.53
2022-09-05T11:57:33.920Z,33.79
2022-09-05T11:58:19.937Z,33.41
2022-09-05T11:59:05.388Z,33.55
2022-09-05T12:00:09.277Z,33.57
2022-09-05T12:01:41.961Z,33.71
2022-09-05T12:02:17.076Z,33.85
2022-09-05T12:03:05.380Z,33.52
2022-09-05T12:04:08.539Z,33.33
2022-09-05T12:05:50.018Z,33.37
2022-09-05T12:06:05.413Z,33.26
2022-09-05T12:07:15.562Z,33.74
2022-09-05T12:08:05.448Z,33.51
2022-09-05T12:09:06.252Z,33.34
2022-09-05T12:10:05.398Z,33.42
2022-09-05T12:11:05.386Z,33.58
2022-09-05T12:12:05.369Z,33.79
2022-09-05T12:13:05.366Z,33.83
2022-09-05T12:14:17.057Z,33.86
2022-09-05T12:15:07.254Z,33.86
2022-09-05T12:16:08.424Z,33.86
2022-09-05T12:17:06.533Z,33.83
2022-09-05T12:19:19.367Z,33.80
2022-09-05T12:20:05.398Z,33.87
2022-09-05T12:22:09.832Z,34.74
2022-09-05T12:23:05.411Z,34.56
2022-09-05T12:25:23.591Z,34.69
2022-09-05T12:26:02.865Z,34.74
2022-09-05T12:27:38.656Z,34.48
2022-09-05T12:27:40.544Z,34.50
2022-09-05T12:29:26.087Z,34.29
2022-09-05T12:29:32.676Z,33.76
2022-09-05T12:30:05.717Z,33.19
2022-09-05T12:32:19.667Z,32.55
2022-09-05T12:32:34.408Z,32.00
2022-09-05T12:36:01.227Z,31.55
2022-09-05T12:36:10.059Z,30.93
2022-09-05T12:36:13.057Z,31.23
2022-09-05T12:40:00.931Z,30.23
2022-09-05T12:40:44.621Z,30.59
2022-09-05T12:40:54.866Z,29.97
2022-09-05T12:41:32.283Z,29.89
2022-09-05T12:41:36.240Z,29.87
2022-09-05T12:41:41.391Z,34.36
2022-09-05T12:41:43.194Z,30.40
2022-09-05T12:42:10.054Z,33.70
2022-09-05T12:42:11.535Z,30.98
2022-09-05T12:44:39.736Z,31.54
2022-09-05T12:44:41.358Z,32.00
2022-09-05T12:45:05.578Z,32.52
2022-09-05T12:46:10.934Z,32.80
2022-09-05T12:47:19.070Z,33.01
2022-09-05T12:48:05.636Z,33.29
2022-09-05T12:49:07.250Z,33.49
2022-09-05T12:50:14.905Z,33.55
2022-09-05T12:51:05.285Z,33.78
2022-09-05T12:52:05.285Z,33.78
2022-09-05T12:53:05.281Z,33.73
2022-09-05T12:54:05.274Z,33.83
2022-09-05T12:55:05.314Z,33.82